createdAt,value
2023-05-13T00:02:08.342Z,97968.94
2023-05-13T00:04:39.742Z,97969.52
2023-05-13T00:07:10.967Z,97965.98
2023-05-13T00:09:42.555Z,97963.78
2023-05-13T00:12:13.818Z,97964.70
2023-05-13T00:14:44.913Z,97960.98
2023-05-13T00:17:16.008Z,97960.63
2023-05-13T00:19:47.161Z,97955.98
2023-05-13T00:22:18.278Z,97953.91
2023-05-13T00:24:47.725Z,97954.94
2023-05-13T00:27:18.684Z,97957.37
2023-05-13T00:29:48.239Z,97954.06
2023-05-13T00:32:19.217Z,97957.56
2023-05-13T00:34:48.927Z,97957.61
2023-05-13T00:37:20.138Z,97958.71
2023-05-13T00:39:49.871Z,97964.61
2023-05-13T00:42:19.216Z,97967.61
2023-05-13T00:44:50.620Z,97967.38
2023-05-13T00:47:22.383Z,97968.21
2023-05-13T00:49:54.673Z,97967.09
2023-05-13T00:52:25.696Z,97966.10
2023-05-13T00:54:56.833Z,97969.02
2023-05-13T00:57:28.050Z,97971.30
2023-05-13T00:59:57.458Z,97973.71
2023-05-13T01:02:32.919Z,97967.75
2023-05-13T01:05:17.016Z,97969.42
2023-05-13T01:07:57.652Z,97968.20
2023-05-13T01:10:36.803Z,97968.56
2023-05-13T01:13:12.439Z,97965.83
2023-05-13T01:15:50.707Z,97965.61
2023-05-13T01:18:26.226Z,97966.16
2023-05-13T01:20:57.862Z,97965.13
2023-05-13T01:23:28.849Z,97965.16
2023-05-13T01:26:00.839Z,97962.83
2023-05-13T01:28:32.385Z,97960.70
2023-05-13T01:31:03.604Z,97957.07
2023-05-13T01:33:35.277Z,97954.45
2023-05-13T01:36:07.987Z,97955.02
2023-05-13T01:38:40.431Z,97953.48
2023-05-13T01:41:12.217Z,97954.76
2023-05-13T01:43:43.179Z,97954.77
2023-05-13T01:46:15.712Z,97953.30
2023-05-13T01:48:46.714Z,97955.52
2023-05-13T01:51:16.106Z,97958.48
2023-05-13T01:53:47.130Z,97959.48
2023-05-13T01:56:18.305Z,97956.44
2023-05-13T01:58:49.135Z,97958.46
2023-05-13T02:01:22.476Z,97957.23
2023-05-13T02:03:53.888Z,97958.81
2023-05-13T02:06:25.018Z,97953.23
2023-05-13T02:08:56.141Z,97951.70
2023-05-13T02:11:25.583Z,97952.70
2023-05-13T02:13:56.500Z,97951.79
2023-05-13T02:16:27.674Z,97949.81
2023-05-13T02:18:58.940Z,97948.38
2023-05-13T02:21:30.072Z,97948.87
2023-05-13T02:24:01.059Z,97948.69
2023-05-13T02:26:32.473Z,97947.85
2023-05-13T02:29:03.635Z,97945.92
2023-05-13T02:31:36.849Z,97943.49
2023-05-13T02:34:08.066Z,97940.74
2023-05-13T02:36:39.212Z,97943.52
2023-05-13T02:39:10.906Z,97941.19
2023-05-13T02:41:42.035Z,97943.02
2023-05-13T02:44:11.433Z,97943.45
2023-05-13T02:46:44.262Z,97946.90
2023-05-13T02:49:15.297Z,97945.77
2023-05-13T02:51:46.318Z,97942.32
2023-05-13T02:54:17.766Z,97939.73
2023-05-13T02:56:48.779Z,97943.95
2023-05-13T02:59:18.230Z,97945.77
2023-05-13T03:01:49.521Z,97945.14
2023-05-13T03:04:21.014Z,97939.52
2023-05-13T03:06:53.067Z,97945.75
2023-05-13T03:09:24.158Z,97948.35
2023-05-13T03:11:53.593Z,97949.34
2023-05-13T03:14:24.898Z,97949.20
2023-05-13T03:16:56.089Z,97950.24
2023-05-13T03:19:26.901Z,97952.31
2023-05-13T03:21:57.919Z,97954.64
2023-05-13T03:24:27.460Z,97952.05
2023-05-13T03:26:58.716Z,97954.13
2023-05-13T03:29:29.742Z,97957.94
2023-05-13T03:31:59.991Z,97954.11
2023-05-13T03:34:31.143Z,97957.05
2023-05-13T03:37:02.062Z,97959.98
2023-05-13T03:39:33.176Z,97962.44
2023-05-13T03:42:04.152Z,97964.39
2023-05-13T03:44:35.352Z,97965.10
2023-05-13T03:47:04.981Z,97966.34
2023-05-13T03:49:36.016Z,97967.84
2023-05-13T03:52:08.993Z,97971.11
2023-05-13T03:54:40.040Z,97973.00
2023-05-13T03:57:11.321Z,97977.60
2023-05-13T03:59:42.507Z,97974.92
2023-05-13T04:02:13.545Z,97978.64
2023-05-13T04:04:44.873Z,97979.73
2023-05-13T04:07:14.256Z,97983.09
2023-05-13T04:09:45.630Z,97983.73
2023-05-13T04:12:18.182Z,97985.98
2023-05-13T04:14:49.116Z,97982.92
2023-05-13T04:17:20.142Z,97988.73
2023-05-13T04:19:53.470Z,97988.78
2023-05-13T04:22:25.569Z,97986.62
2023-05-13T04:24:57.272Z,97989.21
2023-05-13T04:27:28.355Z,97989.25
2023-05-13T04:29:59.924Z,97989.64
2023-05-13T04:32:31.468Z,97991.66
2023-05-13T04:35:00.967Z,97995.88
2023-05-13T04:37:33.128Z,97993.11
2023-05-13T04:40:02.544Z,97994.86
2023-05-13T04:42:33.718Z,97994.38
2023-05-13T04:45:05.040Z,97993.81
2023-05-13T04:47:38.173Z,97992.77
2023-05-13T04:50:10.729Z,97993.43
2023-05-13T04:52:43.151Z,97991.12
2023-05-13T04:55:14.547Z,97989.66
2023-05-13T04:57:45.561Z,97991.36
2023-05-13T05:00:18.749Z,97994.16
2023-05-13T05:02:49.771Z,97990.20
2023-05-13T05:05:19.237Z,97991.65
2023-05-13T05:07:50.249Z,97992.32
2023-05-13T05:10:19.967Z,97997.34
2023-05-13T05:12:52.004Z,97994.86
2023-05-13T05:15:23.437Z,97994.95
2023-05-13T05:17:54.652Z,97995.52
2023-05-13T05:20:25.605Z,97998.09
2023-05-13T05:22:56.580Z,97999.81
2023-05-13T05:25:27.770Z,98000.76
2023-05-13T05:27:58.860Z,97998.31
2023-05-13T05:30:30.588Z,98002.23
2023-05-13T05:33:01.762Z,98000.19
2023-05-13T05:35:33.427Z,98004.33
2023-05-13T05:38:05.211Z,98006.45
2023-05-13T05:40:37.446Z,98009.88
2023-05-13T05:43:08.701Z,98013.02
2023-05-13T05:45:40.815Z,98013.30
2023-05-13T05:48:11.959Z,98015.40
2023-05-13T05:50:43.338Z,98015.48
2023-05-13T05:53:14.458Z,98020.60
2023-05-13T05:55:45.511Z,98020.36
2023-05-13T05:58:19.831Z,98023.98
2023-05-13T06:00:50.808Z,98021.48
2023-05-13T06:03:22.123Z,98024.58
2023-05-13T06:05:53.277Z,98021.58
2023-05-13T06:08:29.991Z,98023.10
2023-05-13T06:11:01.732Z,98019.09
2023-05-13T06:13:32.865Z,98021.59
2023-05-13T06:16:04.118Z,98019.46
2023-05-13T06:18:35.247Z,98015.35
2023-05-13T06:21:06.997Z,98014.23
2023-05-13T06:23:37.987Z,98017.02
2023-05-13T06:26:08.981Z,98019.17
2023-05-13T06:28:40.076Z,98022.22
2023-05-13T06:31:11.036Z,98022.95
2023-05-13T06:33:42.235Z,98023.76
2023-05-13T06:36:13.233Z,98022.86
2023-05-13T06:38:44.232Z,98023.55
2023-05-13T06:41:15.399Z,98025.00
2023-05-13T06:43:48.857Z,98025.36
2023-05-13T06:46:19.910Z,98030.29
2023-05-13T06:48:52.469Z,98033.80
2023-05-13T06:51:23.383Z,98031.48
2023-05-13T06:53:54.417Z,98032.10
2023-05-13T06:56:26.028Z,98033.52
2023-05-13T06:58:57.551Z,98033.02
2023-05-13T07:01:29.154Z,98035.05
2023-05-13T07:04:00.424Z,98030.06
2023-05-13T07:06:31.674Z,98034.98
2023-05-13T07:09:07.165Z,98032.44
2023-05-13T07:11:39.501Z,98034.25
2023-05-13T07:14:10.615Z,98035.42
2023-05-13T07:16:41.710Z,98025.46
2023-05-13T07:19:12.835Z,98028.15
2023-05-13T07:21:44.166Z,98023.86
2023-05-13T07:24:15.277Z,98022.63
2023-05-13T07:26:46.367Z,98024.84
2023-05-13T07:29:17.222Z,98028.14
2023-05-13T07:31:48.285Z,98026.70
2023-05-13T07:34:19.235Z,98029.42
2023-05-13T07:36:50.341Z,98033.41
2023-05-13T07:39:21.169Z,98032.41
2023-05-13T07:41:52.163Z,98033.02
2023-05-13T07:44:23.624Z,98035.77
2023-05-13T07:46:54.920Z,98038.06
2023-05-13T07:49:26.210Z,98034.66
2023-05-13T07:51:57.148Z,98039.84
2023-05-13T07:54:28.126Z,98042.91
2023-05-13T07:56:59.116Z,98042.52
2023-05-13T07:59:30.457Z,98044.48
2023-05-13T08:02:01.492Z,98045.06
2023-05-13T08:04:33.513Z,98042.96
2023-05-13T08:07:05.100Z,98043.02
2023-05-13T08:09:36.265Z,98046.11
2023-05-13T08:12:07.961Z,98038.90
2023-05-13T08:14:39.090Z,98042.28
2023-05-13T08:17:10.166Z,98040.84
2023-05-13T08:19:41.631Z,98043.38
2023-05-13T08:22:12.625Z,98043.18
2023-05-13T08:24:44.083Z,98041.00
2023-05-13T08:27:15.018Z,98038.88
2023-05-13T08:29:46.104Z,98040.43
2023-05-13T08:32:17.565Z,98039.97
2023-05-13T08:34:49.065Z,98035.15
2023-05-13T08:37:20.130Z,98037.44
2023-05-13T08:39:51.248Z,98040.50
2023-05-13T08:42:24.061Z,98043.21
2023-05-13T08:44:55.046Z,98040.89
2023-05-13T08:47:35.500Z,98036.95
2023-05-13T08:50:09.794Z,98044.11
2023-05-13T08:52:40.998Z,98048.73
2023-05-13T08:55:12.731Z,98048.11
2023-05-13T08:57:43.694Z,98050.40
2023-05-13T09:00:18.043Z,98046.13
2023-05-13T09:03:10.287Z,98045.32
2023-05-13T09:05:41.658Z,98044.27
2023-05-13T09:08:13.271Z,98046.64
2023-05-13T09:10:45.083Z,98048.73
2023-05-13T09:13:18.715Z,98050.08
2023-05-13T09:15:51.730Z,98050.36
2023-05-13T09:18:22.739Z,98055.90
2023-05-13T09:20:53.916Z,98049.16
2023-05-13T09:23:26.359Z,98050.40
2023-05-13T09:25:57.413Z,98050.92
2023-05-13T09:28:28.422Z,98049.71
2023-05-13T09:30:59.610Z,98051.59
2023-05-13T09:33:32.776Z,98047.85
2023-05-13T09:36:08.383Z,98048.58
2023-05-13T09:38:40.152Z,98050.09
2023-05-13T09:41:12.943Z,98049.29
2023-05-13T09:43:44.961Z,98051.67
2023-05-13T09:46:15.934Z,98056.36
2023-05-13T09:48:47.305Z,98060.01
2023-05-13T09:51:19.243Z,98055.97
2023-05-13T09:53:51.187Z,98053.75
2023-05-13T09:56:25.356Z,98056.01
2023-05-13T09:58:56.796Z,98049.21
2023-05-13T10:01:28.680Z,98056.70
2023-05-13T10:04:00.268Z,98051.34
2023-05-13T10:06:34.354Z,98052.14
2023-05-13T10:09:08.312Z,98053.94
2023-05-13T10:11:40.365Z,98050.89
2023-05-13T10:14:11.718Z,98050.57
2023-05-13T10:16:43.103Z,98047.84
2023-05-13T10:19:15.282Z,98047.98
2023-05-13T10:21:47.186Z,98045.98
2023-05-13T10:24:18.802Z,98048.42
2023-05-13T10:26:53.402Z,98052.34
2023-05-13T10:29:26.054Z,98058.55
2023-05-13T10:31:58.667Z,98053.66
2023-05-13T10:34:31.599Z,98055.07
2023-05-13T10:37:17.408Z,98054.56
2023-05-13T10:40:12.797Z,98056.30
2023-05-13T10:42:48.195Z,98050.36
2023-05-13T10:45:19.486Z,98055.03
2023-05-13T10:47:52.963Z,98054.91
2023-05-13T10:50:27.842Z,98053.40
2023-05-13T10:53:03.341Z,98053.90
2023-05-13T10:55:45.599Z,98054.54
2023-05-13T10:58:22.374Z,98055.52
2023-05-13T11:00:53.590Z,98059.80
2023-05-13T11:03:32.213Z,98060.45
2023-05-13T11:06:16.616Z,98062.23
2023-05-13T11:08:49.592Z,98058.30
2023-05-13T11:11:30.560Z,98064.64
2023-05-13T11:14:15.252Z,98065.48
2023-05-13T11:16:53.692Z,98066.17
2023-05-13T11:19:27.333Z,98063.06
2023-05-13T11:22:05.428Z,98064.13
2023-05-13T11:24:37.182Z,98065.73
2023-05-13T11:27:17.784Z,98065.44
2023-05-13T11:29:55.203Z,98068.45
2023-05-13T11:32:58.811Z,98071.45
2023-05-13T11:35:31.682Z,98076.12
2023-05-13T11:38:05.805Z,98080.05
2023-05-13T11:40:39.104Z,98079.42
2023-05-13T11:43:10.789Z,98080.08
2023-05-13T11:45:42.614Z,98083.26
2023-05-13T11:48:30.277Z,98083.38
2023-05-13T11:51:01.487Z,98083.73
2023-05-13T11:53:32.755Z,98082.80
2023-05-13T11:56:12.992Z,98092.21
2023-05-13T11:58:47.248Z,98092.23
2023-05-13T12:01:45.677Z,98096.66
2023-05-13T12:04:16.732Z,98099.49
2023-05-13T12:06:49.470Z,98106.39
2023-05-13T12:09:23.488Z,98105.16
2023-05-13T12:12:02.998Z,98104.58
2023-05-13T12:14:35.067Z,98109.42
2023-05-13T12:17:06.608Z,98109.63
2023-05-13T12:19:38.545Z,98114.77
2023-05-13T12:22:10.026Z,98114.74
2023-05-13T12:24:42.701Z,98111.70
2023-05-13T12:27:14.254Z,98110.86
2023-05-13T12:29:45.775Z,98113.21
2023-05-13T12:32:19.607Z,98115.30
2023-05-13T12:34:52.929Z,98115.36
2023-05-13T12:37:27.292Z,98116.43
2023-05-13T12:42:57.372Z,98120.30
2023-05-13T12:45:32.536Z,98126.56
2023-05-13T12:48:05.215Z,98125.33
2023-05-13T12:50:36.542Z,98129.73
2023-05-13T12:53:07.482Z,98126.95
2023-05-13T12:55:40.359Z,98126.47
2023-05-13T12:58:14.426Z,98123.10
2023-05-13T13:00:45.354Z,98122.22
2023-05-13T13:03:16.970Z,98126.13
2023-05-13T13:05:48.172Z,98127.73
2023-05-13T13:08:19.443Z,98123.52
2023-05-13T13:10:50.484Z,98125.34
2023-05-13T13:13:21.524Z,98124.12
2023-05-13T13:15:52.619Z,98125.91
2023-05-13T13:18:24.646Z,98121.08
2023-05-13T13:20:56.246Z,98118.80
2023-05-13T13:23:27.132Z,98114.79
2023-05-13T13:25:59.284Z,98117.46
2023-05-13T13:28:31.824Z,98119.61
2023-05-13T13:31:02.901Z,98119.38
2023-05-13T13:33:33.956Z,98113.45
2023-05-13T13:36:05.737Z,98110.20
2023-05-13T13:38:36.977Z,98111.17
2023-05-13T13:41:08.228Z,98109.23
2023-05-13T13:43:39.638Z,98105.66
2023-05-13T13:46:11.101Z,98103.23
2023-05-13T13:48:42.178Z,98100.10
2023-05-13T13:51:13.257Z,98099.06
2023-05-13T13:53:44.251Z,98100.43
2023-05-13T13:56:15.438Z,98100.04
2023-05-13T13:58:46.497Z,98097.02
2023-05-13T14:01:19.746Z,98097.93
2023-05-13T14:03:52.256Z,98093.15
2023-05-13T14:06:23.236Z,98093.13
2023-05-13T14:08:54.701Z,98088.46
2023-05-13T14:11:25.726Z,98090.34
2023-05-13T14:13:56.729Z,98086.52
2023-05-13T14:16:28.084Z,98085.00
2023-05-13T14:18:59.491Z,98085.05
2023-05-13T14:21:30.921Z,98085.50
2023-05-13T14:24:02.195Z,98079.42
2023-05-13T14:26:33.700Z,98079.16
2023-05-13T14:29:04.709Z,98079.84
2023-05-13T14:31:36.035Z,98078.45
2023-05-13T14:34:08.114Z,98076.80
2023-05-13T14:36:39.320Z,98077.66
2023-05-13T14:39:10.917Z,98075.99
2023-05-13T14:41:42.635Z,98072.05
2023-05-13T14:44:14.193Z,98070.14
2023-05-13T14:46:45.498Z,98070.27
2023-05-13T14:49:16.683Z,98073.42
2023-05-13T14:51:47.806Z,98069.40
2023-05-13T14:54:18.864Z,98065.36
2023-05-13T14:56:50.020Z,98066.02
2023-05-13T14:59:21.149Z,98063.33
2023-05-13T15:01:52.434Z,98066.58
2023-05-13T15:04:23.550Z,98063.55
2023-05-13T15:06:55.665Z,98061.39
2023-05-13T15:09:26.803Z,98060.90
2023-05-13T15:11:58.053Z,98058.55
2023-05-13T15:14:29.180Z,98055.23
2023-05-13T15:17:00.401Z,98047.33
2023-05-13T15:19:32.050Z,98047.05
2023-05-13T15:22:03.076Z,98044.72
2023-05-13T15:24:34.742Z,98045.52
2023-05-13T15:27:06.014Z,98044.75
2023-05-13T15:29:37.080Z,98045.43
2023-05-13T15:32:09.699Z,98046.90
2023-05-13T15:34:40.670Z,98046.40
2023-05-13T15:37:11.553Z,98047.73
2023-05-13T15:39:42.522Z,98049.70
2023-05-13T15:42:14.496Z,98048.95
2023-05-13T15:44:46.600Z,98045.98
2023-05-13T15:47:18.007Z,98044.69
2023-05-13T15:49:50.777Z,98039.30
2023-05-13T15:52:21.923Z,98037.42
2023-05-13T15:54:53.086Z,98033.17
2023-05-13T15:57:24.102Z,98035.59
2023-05-13T15:59:55.681Z,98034.09
2023-05-13T16:02:29.679Z,98027.56
2023-05-13T16:05:02.393Z,98025.23
2023-05-13T16:07:33.902Z,98022.94
2023-05-13T16:10:05.565Z,98023.59
2023-05-13T16:12:36.995Z,98020.90
2023-05-13T16:15:09.569Z,98025.25
2023-05-13T16:17:40.734Z,98021.16
2023-05-13T16:20:13.351Z,98017.30
2023-05-13T16:22:44.447Z,98016.02
2023-05-13T16:25:15.504Z,98014.15
2023-05-13T16:27:47.282Z,98011.42
2023-05-13T16:30:18.688Z,98012.45
2023-05-13T16:32:53.430Z,98010.27
2023-05-13T16:35:25.192Z,98010.95
2023-05-13T16:37:56.484Z,98009.56
2023-05-13T16:40:27.990Z,98008.80
2023-05-13T16:43:01.687Z,98010.00
2023-05-13T16:45:34.486Z,98010.76
2023-05-13T16:48:05.815Z,98010.95
2023-05-13T16:50:37.330Z,98008.09
2023-05-13T16:53:08.577Z,98007.05
2023-05-13T16:55:39.743Z,98009.38
2023-05-13T16:58:11.079Z,98006.55
2023-05-13T17:00:42.107Z,98002.48
2023-05-13T17:03:13.895Z,98002.04
2023-05-13T17:05:45.158Z,97998.38
2023-05-13T17:08:17.592Z,97993.17
2023-05-13T17:10:48.461Z,97992.34
2023-05-13T17:13:20.351Z,97988.14
2023-05-13T17:15:51.443Z,97986.98
2023-05-13T17:18:22.535Z,97984.62
2023-05-13T17:20:54.986Z,97988.84
2023-05-13T17:23:26.480Z,97984.06
2023-05-13T17:25:57.656Z,97984.58
2023-05-13T17:28:28.759Z,97983.22
2023-05-13T17:30:59.841Z,97985.16
2023-05-13T17:33:31.059Z,97984.85
2023-05-13T17:36:02.161Z,97988.03
2023-05-13T17:38:33.635Z,97991.59
2023-05-13T17:41:05.218Z,97991.91
2023-05-13T17:43:36.406Z,97996.39
2023-05-13T17:46:07.705Z,97998.77
2023-05-13T17:48:38.946Z,98000.55
2023-05-13T17:51:10.083Z,97996.01
2023-05-13T17:53:41.064Z,98001.83
2023-05-13T17:56:12.020Z,98001.06
2023-05-13T17:58:42.914Z,97998.47
2023-05-13T18:01:14.072Z,98005.15
2023-05-13T18:03:45.328Z,98003.30
2023-05-13T18:06:16.395Z,98006.25
2023-05-13T18:08:47.425Z,98008.54
2023-05-13T18:11:18.448Z,98011.92
2023-05-13T18:13:49.426Z,98009.30
2023-05-13T18:16:20.711Z,98011.45
2023-05-13T18:18:51.955Z,98013.24
2023-05-13T18:21:24.221Z,98012.98
2023-05-13T18:23:55.226Z,98015.16
2023-05-13T18:26:26.690Z,98013.35
2023-05-13T18:28:57.743Z,98011.48
2023-05-13T18:31:28.964Z,98011.09
2023-05-13T18:33:59.908Z,98011.50
2023-05-13T18:36:31.193Z,98007.28
2023-05-13T18:39:02.111Z,98010.63
2023-05-13T18:41:33.047Z,98010.13
2023-05-13T18:44:04.052Z,98010.29
2023-05-13T18:46:35.306Z,98008.86
2023-05-13T18:49:06.412Z,98011.15
2023-05-13T18:51:37.603Z,98011.86
2023-05-13T18:54:09.118Z,98013.73
2023-05-13T18:56:41.149Z,98018.35
2023-05-13T18:59:12.258Z,98020.91
2023-05-13T19:01:43.527Z,98020.61
2023-05-13T19:04:15.316Z,98021.06
2023-05-13T19:06:46.537Z,98021.80
2023-05-13T19:09:17.636Z,98021.20
2023-05-13T19:11:48.687Z,98021.65
2023-05-13T19:14:19.892Z,98024.60
2023-05-13T19:16:50.956Z,98027.36
2023-05-13T19:19:21.970Z,98025.61
2023-05-13T19:21:53.004Z,98032.39
2023-05-13T19:24:23.980Z,98033.46
2023-05-13T19:26:55.095Z,98034.31
2023-05-13T19:29:26.025Z,98036.64
2023-05-13T19:31:57.145Z,98036.69
2023-05-13T19:34:28.058Z,98035.42
2023-05-13T19:36:59.508Z,98037.65
2023-05-13T19:39:30.763Z,98040.33
2023-05-13T19:42:01.636Z,98042.04
2023-05-13T19:44:34.097Z,98039.66
2023-05-13T19:47:08.490Z,98036.35
2023-05-13T19:49:40.132Z,98038.96
2023-05-13T19:52:11.531Z,98040.25
2023-05-13T19:54:42.906Z,98039.73
2023-05-13T19:57:13.774Z,98041.08
2023-05-13T19:59:45.178Z,98040.02
2023-05-13T20:02:16.075Z,98035.38
2023-05-13T20:04:47.325Z,98032.86
2023-05-13T20:07:18.589Z,98033.27
2023-05-13T20:09:49.669Z,98034.89
2023-05-13T20:12:19.249Z,98037.31
2023-05-13T20:14:51.906Z,98033.89
2023-05-13T20:17:23.891Z,98035.85
2023-05-13T20:19:55.985Z,98034.38
2023-05-13T20:22:27.669Z,98031.99
2023-05-13T20:24:59.037Z,98030.70
2023-05-13T20:27:30.044Z,98032.10
2023-05-13T20:30:02.190Z,98031.92
2023-05-13T20:32:33.783Z,98027.49
2023-05-13T20:35:05.146Z,98028.71
2023-05-13T20:37:36.529Z,98031.03
2023-05-13T20:40:09.397Z,98027.09
2023-05-13T20:42:40.380Z,98029.33
2023-05-13T20:45:13.294Z,98029.02
2023-05-13T20:47:44.230Z,98032.00
2023-05-13T20:50:16.204Z,98029.94
2023-05-13T20:52:47.400Z,98030.82
2023-05-13T20:55:18.394Z,98032.19
2023-05-13T20:57:51.129Z,98030.01
2023-05-13T21:00:23.056Z,98030.42
2023-05-13T21:02:54.425Z,98027.52
2023-05-13T21:05:25.545Z,98024.78
2023-05-13T21:07:56.672Z,98026.90
2023-05-13T21:10:27.786Z,98023.20
2023-05-13T21:12:58.689Z,98025.05
2023-05-13T21:15:29.976Z,98024.92
2023-05-13T21:18:01.062Z,98025.55
2023-05-13T21:20:32.801Z,98026.63
2023-05-13T21:23:04.049Z,98026.44
2023-05-13T21:25:34.972Z,98021.73
2023-05-13T21:28:06.691Z,98022.73
2023-05-13T21:30:37.573Z,98026.17
2023-05-13T21:33:08.738Z,98027.08
2023-05-13T21:35:39.592Z,98029.02
2023-05-13T21:38:12.362Z,98030.86
2023-05-13T21:40:43.820Z,98031.23
2023-05-13T21:43:14.933Z,98027.22
2023-05-13T21:45:47.508Z,98027.94
2023-05-13T21:48:19.377Z,98028.95
2023-05-13T21:50:52.884Z,98028.89
2023-05-13T21:53:23.996Z,98029.15
2023-05-13T21:55:56.780Z,98029.19
2023-05-13T21:58:28.234Z,98028.50
2023-05-13T22:01:00.388Z,98029.87
2023-05-13T22:03:32.059Z,98027.69
2023-05-13T22:06:03.477Z,98025.30
2023-05-13T22:08:35.522Z,98023.73
2023-05-13T22:11:07.333Z,98022.61
2023-05-13T22:13:38.265Z,98027.33
2023-05-13T22:16:08.352Z,98025.30
2023-05-13T22:18:39.995Z,98027.16
2023-05-13T22:21:11.224Z,98027.55
2023-05-13T22:23:42.113Z,98029.61
2023-05-13T22:26:13.182Z,98029.55
2023-05-13T22:28:46.757Z,98025.66
2023-05-13T22:31:18.199Z,98027.71
2023-05-13T22:33:49.618Z,98025.12
2023-05-13T22:36:20.706Z,98023.61
2023-05-13T22:38:51.936Z,98024.37
2023-05-13T22:41:23.855Z,98027.34
2023-05-13T22:43:55.127Z,98022.92
2023-05-13T22:46:26.195Z,98018.55
2023-05-13T22:48:57.260Z,98013.21
2023-05-13T22:51:26.481Z,98011.83
2023-05-13T22:53:57.329Z,98014.63
2023-05-13T22:56:29.667Z,98014.89
2023-05-13T22:59:00.594Z,98015.63
2023-05-13T23:01:31.791Z,98014.23
2023-05-13T23:04:03.307Z,98018.60
2023-05-13T23:06:34.297Z,98016.36
2023-05-13T23:09:05.804Z,98013.63
2023-05-13T23:11:38.014Z,98012.92
2023-05-13T23:14:09.420Z,98010.80
2023-05-13T23:16:40.917Z,98010.24
2023-05-13T23:19:13.866Z,98009.73
2023-05-13T23:21:45.042Z,98004.83
2023-05-13T23:24:16.143Z,98000.98
2023-05-13T23:26:47.526Z,97996.73
2023-05-13T23:29:18.617Z,97999.84
2023-05-13T23:31:48.426Z,97994.44
2023-05-13T23:34:19.491Z,97990.23
2023-05-13T23:36:50.769Z,97991.36
2023-05-13T23:39:21.775Z,97988.35
2023-05-13T23:41:51.576Z,97987.78
2023-05-13T23:44:22.656Z,97986.50
2023-05-13T23:46:53.974Z,97987.24
2023-05-13T23:49:23.250Z,97988.42
2023-05-13T23:51:54.349Z,97991.08
2023-05-13T23:54:25.438Z,97987.15
2023-05-13T23:56:56.233Z,97980.84
2023-05-13T23:59:25.629Z,97974.45
